Time;durP1;ratioP1;P1;durP2;ratioP2;P2;SDS_P1;SDS_P2;PMS_P1;PMS_P2;Temp;Humidity;BMP_temperature;BMP_pressure;BME280_temperature;BME280_humidity;BME280_pressure;Samples;Min_cycle;Max_cycle;Signal;HPM_P1;HPM_P2
2023/06/12 00:01:03;;;;;;;8.75;8.00;;;16.30;99.90;;;17.22;68.53;97739.41;5194462;28;20252;-64
2023/06/12 00:03:37;;;;;;;8.82;8.00;;;16.20;99.90;;;17.16;69.20;97728.91;5195403;28;20645;-63
2023/06/12 00:06:12;;;;;;;8.70;8.02;;;16.20;99.90;;;17.03;68.67;97725.97;5193683;28;20232;-64
2023/06/12 00:08:45;;;;;;;8.30;7.70;;;16.10;99.90;;;17.08;69.34;97737.34;5197216;28;20709;-63
2023/06/12 00:11:18;;;;;;;8.25;7.75;;;16.00;99.90;;;16.95;69.66;97735.22;5195222;28;20276;-64
2023/06/12 00:13:52;;;;;;;9.02;8.43;;;16.00;99.90;;;16.96;69.62;97736.06;5193774;28;20710;-64
2023/06/12 00:16:25;;;;;;;7.95;7.35;;;16.00;99.90;;;17.01;69.30;97743.13;5193713;28;20233;-63
2023/06/12 00:18:59;;;;;;;8.27;7.68;;;16.00;99.90;;;16.99;68.98;97733.59;5198941;28;20348;-63
2023/06/12 00:21:33;;;;;;;8.05;7.45;;;16.00;99.90;;;16.90;66.98;97741.94;5198422;28;20218;-63
2023/06/12 00:24:08;;;;;;;7.80;7.30;;;16.00;99.90;;;16.97;67.38;97738.72;5200284;28;20286;-64
2023/06/12 00:26:42;;;;;;;7.68;7.18;;;16.10;99.90;;;17.07;67.81;97734.69;5200540;28;20626;-64
2023/06/12 00:29:15;;;;;;;8.27;7.68;;;16.20;99.90;;;17.14;68.09;97738.31;5201237;28;20229;-63
2023/06/12 00:31:48;;;;;;;8.20;7.60;;;16.20;99.90;;;16.99;68.08;97742.19;5201145;28;20225;-64
2023/06/12 00:34:21;;;;;;;8.80;8.15;;;16.10;99.90;;;17.00;68.86;97737.94;5198825;28;20225;-63
2023/06/12 00:36:56;;;;;;;8.40;7.70;;;16.10;99.90;;;16.97;68.91;97733.56;5197957;28;20279;-64
2023/06/12 00:39:30;;;;;;;7.57;6.97;;;16.10;99.90;;;16.95;69.11;97729.16;5195554;28;20267;-64
2023/06/12 00:42:04;;;;;;;7.43;6.72;;;16.00;99.90;;;17.06;69.11;97728.66;5200556;28;20233;-64
2023/06/12 00:44:38;;;;;;;8.23;7.53;;;16.10;99.90;;;17.01;69.14;97734.50;5194136;28;20238;-64
2023/06/12 00:47:11;;;;;;;8.15;7.55;;;16.10;99.90;;;16.96;69.24;97731.78;5199367;28;20275;-64
2023/06/12 00:49:45;;;;;;;8.32;7.72;;;16.00;99.90;;;16.93;68.84;97734.28;5194236;28;20729;-64
2023/06/12 00:52:21;;;;;;;8.13;7.53;;;16.00;99.90;;;16.96;69.28;97731.78;5198105;28;20283;-64
2023/06/12 00:54:55;;;;;;;7.97;7.47;;;16.00;99.90;;;16.94;69.08;97727.41;5200941;28;20221;-64
2023/06/12 00:57:28;;;;;;;8.70;8.05;;;16.00;99.90;;;16.95;69.40;97727.47;5195561;28;20254;-64
2023/06/12 01:00:04;;;;;;;9.27;8.48;;;15.90;99.90;;;16.97;69.92;97720.66;5197812;28;20226;-64
2023/06/12 01:02:42;;;;;;;8.75;8.15;;;15.90;99.90;;;16.81;70.71;97728.75;5195359;28;20230;-64
2023/06/12 01:05:20;;;;;;;8.60;7.90;;;15.80;99.90;;;16.71;70.62;97727.56;5198667;28;20236;-64
2023/06/12 01:08:07;;;;;;;8.52;7.93;;;15.80;99.90;;;16.67;71.53;97730.88;5197188;28;20669;-64
2023/06/12 01:10:42;;;;;;;8.10;7.47;;;15.70;99.90;;;16.63;71.37;97727.31;5200359;28;20344;-64
2023/06/12 01:13:17;;;;;;;9.13;8.43;;;15.70;99.90;;;16.61;72.21;97734.13;5200759;28;20649;-64
2023/06/12 01:15:50;;;;;;;8.95;8.25;;;15.60;99.90;;;16.56;72.45;97735.69;5200600;28;20229;-64
2023/06/12 01:18:23;;;;;;;8.48;7.53;;;15.60;99.90;;;16.49;72.28;97730.31;5200446;28;20229;-64
2023/06/12 01:20:58;;;;;;;8.27;7.57;;;15.50;99.90;;;16.47;72.72;97740.56;5201388;28;20271;-64
2023/06/12 01:23:53;;;;;;;9.23;8.52;;;15.50;99.90;;;16.49;73.19;97733.75;5200908;28;20316;-64
2023/06/12 01:27:06;;;;;;;8.50;7.80;;;15.50;99.90;;;16.40;73.73;97743.78;5196588;28;20234;-64
2023/06/12 01:30:10;;;;;;;8.57;7.88;;;15.40;99.90;;;16.40;73.38;97741.22;5199508;28;20228;-61
2023/06/12 01:32:50;;;;;;;9.85;9.05;;;15.40;99.90;;;16.30;74.16;97741.72;5199972;28;20233;-64
2023/06/12 01:35:30;;;;;;;9.05;8.35;;;15.30;99.90;;;16.24;74.24;97732.09;5197842;28;20704;-64
2023/06/12 01:38:08;;;;;;;9.68;8.75;;;15.20;99.90;;;16.25;74.58;97733.81;5199156;28;20232;-64
2023/06/12 01:40:43;;;;;;;8.88;8.27;;;15.30;99.90;;;16.17;75.13;97730.16;5201251;28;20291;-64
2023/06/12 01:43:16;;;;;;;9.38;8.57;;;15.20;99.90;;;16.19;75.01;97734.50;5196805;28;20256;-63
2023/06/12 01:45:49;;;;;;;9.02;8.23;;;15.20;99.90;;;16.17;75.39;97733.59;5197107;28;20237;-63
2023/06/12 01:48:24;;;;;;;9.05;8.38;;;15.20;99.90;;;16.23;75.41;97735.50;5199067;28;20292;-64
2023/06/12 01:50:57;;;;;;;9.05;8.45;;;15.20;99.90;;;16.21;75.27;97730.28;5201591;28;20229;-63
2023/06/12 01:53:30;;;;;;;9.23;8.43;;;15.20;99.90;;;16.14;75.52;97730.91;5193402;28;20279;-64
2023/06/12 01:56:06;;;;;;;9.60;8.80;;;15.10;99.90;;;16.09;75.71;97727.31;5197845;28;20252;-64
2023/06/12 01:58:39;;;;;;;9.60;8.80;;;15.10;99.90;;;16.06;75.94;97727.22;5198828;28;20233;-63
2023/06/12 02:01:15;;;;;;;8.43;7.82;;;15.10;99.90;;;15.97;76.13;97726.91;5193955;28;20792;-63
2023/06/12 02:03:50;;;;;;;9.10;8.40;;;15.00;99.90;;;15.96;76.29;97723.44;5199864;28;20321;-64
2023/06/12 02:06:23;;;;;;;9.15;8.55;;;15.00;99.90;;;15.98;76.43;97713.19;5200997;28;20239;-64
2023/06/12 02:08:56;;;;;;;8.57;7.88;;;15.00;99.90;;;15.90;76.69;97715.50;5200343;28;20225;-64
2023/06/12 02:11:29;;;;;;;8.75;8.15;;;14.90;99.90;;;15.85;77.55;97714.47;5196448;28;20236;-63
2023/06/12 02:14:02;;;;;;;8.80;8.13;;;14.90;99.90;;;15.84;77.29;97717.88;5199868;28;20603;-64
2023/06/12 02:16:35;;;;;;;8.50;7.80;;;14.90;99.90;;;15.79;77.42;97721.09;5195734;28;20726;-63
2023/06/12 02:19:10;;;;;;;8.70;8.00;;;14.80;99.90;;;15.70;77.65;97717.38;5201479;28;20836;-63
2023/06/12 02:21:43;;;;;;;9.27;8.57;;;14.70;99.90;;;15.74;77.69;97719.25;5200552;28;20570;-64
2023/06/12 02:24:16;;;;;;;8.48;7.78;;;14.70;99.90;;;15.79;77.93;97721.09;5199744;28;20229;-64
2023/06/12 02:26:49;;;;;;;8.30;7.68;;;14.80;99.90;;;15.75;77.79;97722.72;5199408;28;20604;-64
2023/06/12 02:29:23;;;;;;;8.80;8.20;;;14.70;99.90;;;15.68;78.30;97724.22;5198357;28;20275;-62
2023/06/12 02:31:56;;;;;;;9.30;8.45;;;14.70;99.90;;;15.65;77.47;97718.91;5194688;28;20229;-63
2023/06/12 02:34:30;;;;;;;7.57;7.00;;;14.70;99.90;;;15.62;78.12;97729.09;5197735;28;20261;-64
2023/06/12 02:37:04;;;;;;;9.23;8.52;;;14.60;99.90;;;15.45;78.61;97730.19;5199182;28;20221;-63
2023/06/12 02:39:37;;;;;;;8.38;7.72;;;14.50;99.90;;;15.49;78.88;97722.63;5200006;28;20230;-63
2023/06/12 02:42:10;;;;;;;8.00;7.40;;;14.50;99.90;;;15.64;78.75;97717.16;5196642;28;20221;-63
2023/06/12 02:44:43;;;;;;;8.25;7.60;;;14.60;99.90;;;15.62;78.45;97718.78;5199760;28;20242;-63
2023/06/12 02:47:18;;;;;;;8.80;8.20;;;14.60;99.90;;;15.59;78.51;97722.97;5197214;28;20225;-64
2023/06/12 02:49:53;;;;;;;9.20;8.40;;;14.60;99.90;;;15.52;79.25;97719.31;5200281;28;20826;-63
2023/06/12 02:52:26;;;;;;;8.82;8.23;;;14.60;99.90;;;15.48;79.40;97717.41;5198637;28;20236;-64
2023/06/12 02:54:59;;;;;;;9.82;9.02;;;14.50;99.90;;;15.47;79.18;97720.81;5198975;28;21129;-63
2023/06/12 02:57:32;;;;;;;8.95;8.15;;;14.50;99.90;;;15.46;79.60;97711.34;5196997;28;20227;-64
2023/06/12 03:00:08;;;;;;;8.85;8.15;;;14.50;99.90;;;15.44;79.58;97723.31;5197367;28;20633;-64
2023/06/12 03:02:42;;;;;;;8.52;7.72;;;14.50;99.90;;;15.42;79.85;97727.50;5198851;28;20230;-64
2023/06/12 03:05:20;;;;;;;8.88;8.18;;;14.50;99.90;;;15.47;79.67;97718.25;5197023;28;20264;-64
2023/06/12 03:07:54;;;;;;;9.05;8.45;;;14.50;99.90;;;15.43;79.66;97722.44;5197637;28;20229;-64
2023/06/12 03:10:28;;;;;;;9.15;8.43;;;14.50;99.90;;;15.33;79.79;97718.63;5198407;28;20237;-63
2023/06/12 03:13:01;;;;;;;9.15;8.45;;;14.40;99.90;;;15.33;79.84;97726.34;5198070;28;20221;-63
2023/06/12 03:15:34;;;;;;;9.07;8.38;;;14.40;99.90;;;15.30;80.20;97728.81;5197641;28;20769;-63
2023/06/12 03:18:07;;;;;;;9.07;8.48;;;14.40;99.90;;;15.26;80.87;97729.53;5196319;28;20587;-63
2023/06/12 03:20:42;;;;;;;9.30;8.60;;;14.30;99.90;;;15.24;81.19;97731.19;5199646;28;20232;-64
2023/06/12 03:23:16;;;;;;;9.30;8.55;;;14.30;99.90;;;15.20;80.96;97724.19;5199401;28;20220;-63
2023/06/12 03:25:49;;;;;;;9.30;8.60;;;14.20;99.90;;;15.20;81.80;97733.59;5197532;28;20234;-63
2023/06/12 03:28:23;;;;;;;9.88;9.00;;;14.30;99.90;;;15.23;81.33;97738.88;5192942;28;20693;-63
2023/06/12 03:30:56;;;;;;;9.52;8.73;;;14.30;99.90;;;15.15;81.62;97733.41;5193374;28;20233;-63
2023/06/12 03:33:30;;;;;;;8.90;8.20;;;14.30;99.90;;;15.19;81.80;97744.69;5197669;28;20313;-64
2023/06/12 03:36:05;;;;;;;9.32;8.63;;;14.30;99.90;;;15.21;81.85;97745.66;5195745;28;20326;-63
2023/06/12 03:38:38;;;;;;;9.85;9.00;;;14.30;99.90;;;15.23;81.87;97742.31;5197081;28;20225;-63
2023/06/12 03:41:11;;;;;;;9.68;8.77;;;14.20;99.90;;;15.25;81.49;97752.66;5197245;28;20233;-64
2023/06/12 03:43:44;;;;;;;10.07;9.20;;;14.30;99.90;;;15.15;81.85;97751.44;5199266;28;20221;-64
2023/06/12 03:46:18;;;;;;;9.10;8.18;;;14.20;99.90;;;15.12;81.96;97745.31;5192247;28;20257;-64
2023/06/12 03:48:51;;;;;;;11.05;8.77;;;14.20;99.90;;;15.15;81.14;97743.72;5197414;28;20225;-64
2023/06/12 03:51:25;;;;;;;9.95;9.05;;;14.30;99.90;;;15.24;81.98;97745.75;5195848;28;20226;-63
2023/06/12 03:53:59;;;;;;;9.88;8.98;;;14.30;99.90;;;15.19;81.81;97744.69;5197773;28;20725;-63
2023/06/12 03:56:32;;;;;;;9.80;8.98;;;14.30;99.90;;;15.16;81.81;97753.19;5195531;28;20647;-64
2023/06/12 03:59:05;;;;;;;10.18;9.27;;;14.20;99.90;;;15.17;82.81;97756.66;5198228;28;20500;-63
2023/06/12 04:01:38;;;;;;;9.50;8.77;;;14.30;99.90;;;15.23;83.10;97757.75;5198711;28;20230;-64
2023/06/12 04:04:12;;;;;;;10.63;9.73;;;14.30;99.90;;;15.28;82.93;97758.81;5197252;28;20229;-63
2023/06/12 04:06:47;;;;;;;10.25;9.38;;;14.40;99.90;;;15.28;83.25;97758.81;5191946;28;20233;-63
2023/06/12 04:09:22;;;;;;;9.43;8.73;;;14.40;99.90;;;15.32;83.03;97752.06;5203910;28;20245;-64
2023/06/12 04:11:56;;;;;;;9.35;8.55;;;14.40;99.90;;;15.38;83.30;97764.28;5196473;28;20252;-64
2023/06/12 04:14:29;;;;;;;9.52;8.77;;;14.50;99.90;;;15.43;82.93;97766.22;5196005;28;20242;-64
2023/06/12 04:17:03;;;;;;;10.00;9.20;;;14.50;99.90;;;15.53;81.92;97775.16;5197859;28;20264;-64
2023/06/12 04:19:36;;;;;;;10.10;9.30;;;14.60;99.90;;;15.59;81.41;97774.47;5198560;28;20275;-63
2023/06/12 04:22:12;;;;;;;10.48;9.48;;;14.60;99.90;;;15.73;80.59;97776.75;5200898;28;20272;-64
2023/06/12 04:24:47;;;;;;;9.85;8.95;;;14.70;99.90;;;15.76;80.36;97784.59;5197251;28;20230;-64
2023/06/12 04:27:20;;;;;;;10.02;9.02;;;14.70;99.90;;;15.79;80.18;97782.97;5196212;28;20307;-64
2023/06/12 04:29:56;;;;;;;10.23;9.32;;;14.80;99.90;;;15.81;80.12;97786.47;5200676;28;20509;-64
2023/06/12 04:32:30;;;;;;;9.52;8.77;;;14.90;99.90;;;15.82;80.42;97789.09;5200374;28;20237;-64
2023/06/12 04:35:05;;;;;;;9.98;9.13;;;14.90;99.90;;;15.88;80.13;97788.44;5198074;28;20303;-64
2023/06/12 04:37:39;;;;;;;10.40;9.40;;;15.00;99.90;;;15.94;80.28;97784.38;5191366;28;20232;-63
2023/06/12 04:40:14;;;;;;;10.45;9.43;;;15.00;99.90;;;16.04;80.15;97780.41;5190487;28;20222;-64
2023/06/12 04:42:47;;;;;;;10.38;9.38;;;15.10;99.90;;;16.40;79.19;97787.66;5193263;28;20247;-64
2023/06/12 04:45:21;;;;;;;9.65;8.85;;;15.40;99.90;;;17.01;76.19;97792.19;5195914;28;20229;-64
2023/06/12 04:47:54;;;;;;;10.23;9.32;;;16.00;99.90;;;17.65;73.39;97787.16;5191781;28;20229;-65
2023/06/12 04:50:27;;;;;;;10.63;9.68;;;16.60;99.90;;;18.28;71.11;97787.16;5197641;28;20229;-64
2023/06/12 04:53:02;;;;;;;10.02;8.90;;;17.00;99.90;;;18.90;68.43;97780.06;5199024;28;20236;-64
2023/06/12 04:55:35;;;;;;;9.63;8.80;;;17.60;99.90;;;19.34;66.11;97782.78;5194300;28;20233;-65
2023/06/12 04:58:08;;;;;;;9.43;8.63;;;17.80;99.90;;;19.93;62.91;97790.03;5195758;28;20222;-64
2023/06/12 05:00:47;;;;;;;9.93;8.85;;;18.30;99.90;;;20.44;61.30;97796.16;5194842;28;20624;-64
2023/06/12 05:03:21;;;;;;;9.57;8.77;;;18.70;99.90;;;20.81;59.61;97789.84;5194439;28;20263;-64
2023/06/12 05:05:56;;;;;;;9.95;9.05;;;18.90;99.90;;;21.46;57.02;97790.78;5201535;28;20225;-64
2023/06/12 05:08:31;;;;;;;9.55;8.48;;;19.30;99.90;;;21.86;56.05;97793.88;5200690;28;20733;-64
2023/06/12 05:11:06;;;;;;;8.65;7.95;;;19.70;99.90;;;22.31;55.22;97790.03;5198993;28;20221;-64
2023/06/12 05:13:39;;;;;;;8.40;7.78;;;20.20;99.90;;;22.73;54.03;97794.75;5200955;28;20218;-64
2023/06/12 05:16:12;;;;;;;7.70;7.10;;;20.80;99.90;;;23.12;52.81;97789.00;5199326;28;20874;-64
2023/06/12 05:18:45;;;;;;;7.53;6.93;;;21.40;99.10;;;23.22;50.82;97800.34;5199313;28;20236;-65
2023/06/12 05:21:19;;;;;;;7.97;7.32;;;22.00;95.90;;;23.96;49.86;97792.88;5200779;28;20218;-64
2023/06/12 05:23:55;;;;;;;7.93;7.32;;;22.60;95.30;;;24.52;48.76;97802.56;5192870;28;20225;-65
2023/06/12 05:26:28;;;;;;;7.78;7.15;;;23.00;94.30;;;24.80;47.28;97799.97;5194833;28;20226;-64
2023/06/12 05:29:02;;;;;;;7.65;7.05;;;23.20;93.40;;;25.28;46.62;97795.56;5199314;28;20225;-64
2023/06/12 05:31:36;;;;;;;8.48;7.78;;;23.30;93.50;;;25.48;45.81;97799.00;5198631;28;20606;-64
2023/06/12 05:34:09;;;;;;;7.60;7.00;;;23.30;92.80;;;25.73;44.01;97801.53;5195690;28;20280;-65
2023/06/12 05:36:42;;;;;;;8.20;7.20;;;23.80;91.60;;;25.55;44.27;97800.72;5200005;28;20249;-64
2023/06/12 05:39:16;;;;;;;7.40;6.82;;;23.60;91.10;;;25.93;44.15;97791.00;5199583;28;20253;-65
2023/06/12 05:41:49;;;;;;;7.93;7.25;;;23.80;91.40;;;25.89;43.28;97797.97;5195335;28;20294;-64
2023/06/12 05:44:23;;;;;;;8.30;7.70;;;24.10;90.60;;;26.14;43.38;97796.09;5197606;28;20237;-66
2023/06/12 05:46:56;;;;;;;8.15;7.53;;;24.00;90.70;;;26.55;42.68;97802.84;5196474;28;20237;-64
2023/06/12 05:49:29;;;;;;;8.20;7.63;;;24.10;90.80;;;26.71;41.84;97799.22;5198029;28;20721;-65
2023/06/12 05:52:03;;;;;;;8.50;7.90;;;24.40;89.90;;;26.36;43.21;97791.59;5194964;28;20233;-65
2023/06/12 05:54:37;;;;;;;7.50;6.97;;;24.30;90.40;;;26.91;41.70;97792.94;5197197;28;20225;-65
2023/06/12 05:57:13;;;;;;;8.18;7.63;;;24.80;89.40;;;27.14;41.02;97782.22;5197134;28;20224;-64
2023/06/12 05:59:47;;;;;;;7.50;6.95;;;24.80;88.50;;;27.48;40.25;97792.41;5193373;28;20228;-65
2023/06/12 06:02:20;;;;;;;7.40;6.90;;;24.90;88.00;;;27.76;39.52;97788.56;5197067;28;20220;-64
2023/06/12 06:04:54;;;;;;;7.20;6.70;;;25.10;87.60;;;27.36;40.58;97783.78;5197337;28;20233;-64
2023/06/12 06:07:28;;;;;;;7.25;6.60;;;24.90;87.30;;;27.57;39.82;97781.78;5188829;28;20249;-65
2023/06/12 06:10:03;;;;;;;7.20;6.70;;;24.90;87.10;;;27.50;40.29;97785.34;5186561;28;20275;-64
2023/06/12 06:12:36;;;;;;;8.05;7.35;;;25.10;87.00;;;27.91;38.99;97794.53;5196309;28;20294;-64
2023/06/12 06:15:11;;;;;;;7.60;7.03;;;25.20;86.80;;;28.25;38.42;97790.53;5185790;28;20712;-64
2023/06/12 06:17:44;;;;;;;7.72;7.13;;;25.40;86.20;;;28.39;38.08;97798.22;5189514;28;20531;-65
2023/06/12 06:20:17;;;;;;;7.75;7.07;;;25.70;85.40;;;27.69;38.79;97797.38;5192483;28;20225;-65
2023/06/12 06:22:52;;;;;;;7.32;6.72;;;25.20;85.10;;;28.05;39.05;97798.69;5194379;28;20283;-65
2023/06/12 06:25:28;;;;;;;7.53;6.90;;;25.40;85.50;;;28.00;39.04;97791.78;5193512;28;20222;-65
2023/06/12 06:28:01;;;;;;;6.97;6.50;;;25.50;84.60;;;28.12;38.53;97796.84;5197109;28;20244;-64
2023/06/12 06:30:34;;;;;;;8.00;7.40;;;25.60;84.40;;;28.30;38.55;97800.97;5196987;28;20712;-65
2023/06/12 06:33:07;;;;;;;6.82;6.22;;;25.80;84.50;;;28.39;37.85;97797.38;5190756;28;20279;-64
2023/06/12 06:35:40;;;;;;;7.25;6.75;;;25.70;84.30;;;28.37;38.37;97796.50;5187910;28;20244;-65
2023/06/12 06:38:19;;;;;;;7.47;6.88;;;26.00;83.30;;;28.25;37.99;97803.69;5193976;28;20759;-65
2023/06/12 06:40:54;;;;;;;7.70;7.10;;;26.30;82.00;;;28.28;38.07;97794.88;5190727;28;20221;-64
2023/06/12 06:43:27;;;;;;;7.30;6.78;;;26.10;82.70;;;29.09;36.38;97804.13;5197037;28;20231;-64
2023/06/12 06:46:00;;;;;;;7.63;6.95;;;27.00;80.40;;;28.74;37.29;97807.34;5194936;28;20248;-64
2023/06/12 06:48:33;;;;;;;7.15;6.65;;;27.00;80.10;;;29.33;36.11;97812.47;5194525;28;20228;-65
2023/06/12 06:51:07;;;;;;;7.40;6.80;;;26.90;80.40;;;29.48;35.40;97801.66;5192423;28;20319;-65
2023/06/12 06:53:40;;;;;;;7.60;7.00;;;27.00;79.00;;;28.85;36.98;97801.91;5197297;28;20275;-65
2023/06/12 06:56:14;;;;;;;7.43;6.80;;;26.90;79.60;;;29.21;36.45;97808.31;5196381;28;20642;-64
2023/06/12 06:58:48;;;;;;;7.70;7.10;;;27.10;79.70;;;28.87;36.87;97813.25;5194137;28;20224;-64
2023/06/12 07:01:22;;;;;;;7.45;6.85;;;27.00;80.10;;;29.58;35.81;97799.72;5194265;28;20219;-64
2023/06/12 07:03:55;;;;;;;7.45;6.80;;;27.20;79.30;;;29.53;36.47;97797.19;5193907;28;20222;-65
2023/06/12 07:06:28;;;;;;;7.78;7.18;;;27.30;79.20;;;29.69;34.79;97791.63;5190915;28;20228;-64
2023/06/12 07:09:02;;;;;;;6.85;6.40;;;27.50;77.30;;;29.44;35.82;97780.66;5197603;28;20225;-64
2023/06/12 07:11:36;;;;;;;7.03;6.45;;;27.30;77.70;;;30.10;35.04;97793.38;5191868;28;20492;-65
2023/06/12 07:14:09;;;;;;;7.25;6.75;;;28.10;77.10;;;29.46;34.96;97786.78;5195616;28;20224;-64
2023/06/12 07:16:42;;;;;;;7.65;7.00;;;28.10;74.70;;;29.78;34.45;97792.28;5193905;28;20271;-64
2023/06/12 07:19:15;;;;;;;7.60;7.10;;;28.00;75.80;;;30.07;33.99;97791.66;5195588;28;20217;-63
2023/06/12 07:21:49;;;;;;;7.15;6.55;;;28.20;74.90;;;29.99;34.34;97783.06;5187492;28;20313;-65
2023/06/12 07:24:23;;;;;;;6.78;6.28;;;28.40;75.20;;;29.93;34.24;97796.38;5195076;28;20236;-65
2023/06/12 07:26:57;;;;;;;7.47;6.88;;;28.10;74.80;;;29.98;34.49;97783.09;5188549;28;20225;-64
2023/06/12 07:29:30;;;;;;;6.85;6.35;;;28.20;74.80;;;30.38;33.28;97784.88;5189356;28;20330;-65
2023/06/12 07:32:04;;;;;;;7.20;6.60;;;28.20;74.20;;;29.50;34.49;97794.56;5191613;28;20287;-65
2023/06/12 07:34:38;;;;;;;7.50;6.90;;;28.10;73.10;;;29.91;33.59;97795.56;5192539;28;20232;-65
2023/06/12 07:37:12;;;;;;;7.03;6.53;;;27.90;73.20;;;30.31;32.56;97792.06;5187707;28;20225;-64
2023/06/12 07:39:45;;;;;;;6.95;6.45;;;28.20;72.70;;;29.55;34.25;97782.19;5195517;28;20557;-64
2023/06/12 07:42:21;;;;;;;7.40;6.90;;;27.80;74.00;;;30.12;34.17;97788.94;5195531;28;20229;-64
2023/06/12 07:44:54;;;;;;;7.15;6.65;;;28.60;73.60;;;30.58;32.92;97793.16;5196157;28;20771;-64
2023/06/12 07:47:27;;;;;;;6.93;6.43;;;28.70;72.30;;;30.98;31.64;97787.78;5184681;28;20217;-65
2023/06/12 07:50:00;;;;;;;7.55;6.82;;;29.10;70.30;;;30.61;32.12;97792.22;5198443;28;20224;-64
2023/06/12 07:52:33;;;;;;;7.20;6.70;;;28.60;70.80;;;31.01;31.71;97780.69;5194020;28;20229;-65
2023/06/12 07:55:08;;;;;;;7.38;6.75;;;28.70;71.20;;;31.19;31.08;97781.09;5194584;28;20307;-65
2023/06/12 07:57:42;;;;;;;6.53;6.10;;;28.80;70.10;;;31.74;30.40;97770.78;5197276;28;20317;-65
2023/06/12 08:00:17;;;;;;;6.28;5.88;;;29.00;70.30;;;31.61;30.45;97770.25;5194378;28;20225;-64
2023/06/12 08:02:54;;;;;;;6.60;6.10;;;29.40;69.80;;;32.43;29.91;97783.69;5196252;28;20216;-64
2023/06/12 08:05:28;;;;;;;6.65;6.15;;;29.80;68.90;;;32.19;29.72;97775.59;5194888;28;20748;-65
2023/06/12 08:08:02;;;;;;;6.90;6.40;;;29.50;69.00;;;32.26;29.30;97782.44;5189410;28;20767;-64
2023/06/12 08:10:35;;;;;;;6.68;6.22;;;29.90;67.30;;;32.27;28.95;97770.94;5194071;28;20299;-64
2023/06/12 08:13:10;;;;;;;7.10;6.40;;;29.40;67.60;;;32.44;28.27;97767.75;5189628;28;20605;-64
2023/06/12 08:15:43;;;;;;;6.72;6.13;;;29.30;67.70;;;32.32;28.58;97765.50;5188228;28;20271;-63
2023/06/12 08:18:16;;;;;;;6.85;6.30;;;29.50;66.20;;;32.21;28.30;97768.47;5192673;28;20233;-64
2023/06/12 08:20:50;;;;;;;6.97;6.40;;;29.70;66.50;;;31.44;28.57;97769.00;5192381;28;20221;-64
2023/06/12 08:23:23;;;;;;;6.53;6.03;;;29.40;64.80;;;29.57;29.71;97769.88;5193073;28;20717;-64
2023/06/12 08:25:57;;;;;;;6.65;6.10;;;28.40;64.50;;;29.80;29.24;97765.91;5190503;28;20668;-64
2023/06/12 08:28:31;;;;;;;6.32;5.82;;;28.70;62.50;;;29.66;30.31;97765.34;5192950;28;20287;-64
2023/06/12 08:31:04;;;;;;;6.65;6.07;;;28.30;64.60;;;28.93;30.17;97764.03;5193127;28;20630;-64
2023/06/12 08:33:38;;;;;;;5.97;5.47;;;28.10;63.90;;;28.91;30.85;97778.13;5184845;28;20218;-64
2023/06/12 08:36:12;;;;;;;6.63;6.13;;;27.90;65.80;;;29.14;30.13;97773.34;5194762;28;20236;-64
2023/06/12 08:38:45;;;;;;;6.88;6.15;;;28.30;63.30;;;29.19;29.66;97758.31;5192271;28;20247;-64
2023/06/12 08:41:20;;;;;;;6.65;6.15;;;28.30;61.50;;;29.41;29.23;97763.16;5193697;28;20786;-64
2023/06/12 08:44:00;;;;;;;6.47;5.90;;;28.50;62.20;;;29.22;28.88;97769.66;5194334;28;20307;-64
2023/06/12 08:46:34;;;;;;;6.70;6.20;;;28.50;59.90;;;28.07;30.11;97782.91;5198580;28;20233;-65
2023/06/12 08:49:09;;;;;;;7.00;6.50;;;27.70;60.40;;;28.45;30.91;97753.44;5190682;28;20226;-64
2023/06/12 08:51:43;;;;;;;6.22;5.82;;;27.60;63.20;;;28.89;30.39;97759.72;5201449;28;20275;-64
2023/06/12 08:54:16;;;;;;;6.82;6.32;;;28.30;62.90;;;28.55;30.41;97759.41;5197239;28;20720;-63
2023/06/12 08:56:51;;;;;;;7.05;6.45;;;28.20;62.10;;;28.28;31.08;97772.09;5194591;28;20252;-65
2023/06/12 08:59:26;;;;;;;6.95;6.25;;;27.50;64.00;;;28.16;30.72;97756.50;5194416;28;20659;-64
2023/06/12 09:02:00;;;;;;;7.72;6.95;;;27.50;63.00;;;27.30;32.60;97748.81;5197938;28;20220;-64
2023/06/12 09:04:55;;;;;;;7.03;6.53;;;26.70;64.70;;;28.17;32.26;97752.09;5193291;28;20240;-65
2023/06/12 09:07:31;;;;;;;7.03;6.18;;;27.40;64.80;;;28.34;30.25;97754.47;5195404;28;20284;-64
2023/06/12 09:10:05;;;;;;;5.97;5.68;;;27.70;62.30;;;28.57;30.15;97762.91;5197997;28;20275;-64
2023/06/12 09:12:47;;;;;;;6.70;6.10;;;27.80;62.10;;;28.71;30.21;97753.00;5192124;28;21076;-64
2023/06/12 09:15:23;;;;;;;6.70;6.20;;;28.00;61.30;;;27.72;31.23;97744.81;5192292;28;20225;-64
2023/06/12 09:17:56;;;;;;;6.47;5.95;;;27.50;62.40;;;27.91;31.01;97757.75;5198010;28;20708;-64
2023/06/12 09:20:32;;;;;;;6.55;6.05;;;27.60;62.10;;;28.34;30.43;97757.97;5199684;28;20253;-64
2023/06/12 09:23:17;;;;;;;7.00;6.50;;;27.90;62.10;;;28.28;30.40;97756.31;5197856;28;20690;-64
2023/06/12 09:25:54;;;;;;;6.82;6.28;;;28.00;61.10;;;28.07;30.82;97753.97;5197961;28;20307;-64
2023/06/12 09:28:36;;;;;;;7.00;6.40;;;27.70;61.30;;;27.68;31.32;97756.25;5193802;28;20213;-65
2023/06/12 09:31:14;;;;;;;7.22;6.55;;;27.20;62.40;;;27.78;31.32;97749.09;5195602;28;20227;-64
2023/06/12 09:33:51;;;;;;;6.93;6.28;;;27.10;62.70;;;27.37;31.62;97754.00;5192423;28;20359;-64
2023/06/12 09:36:30;;;;;;;6.93;6.25;;;26.70;63.20;;;27.12;32.01;97758.59;5196165;28;20271;-64
2023/06/12 09:39:06;;;;;;;6.50;6.00;;;26.50;63.70;;;27.03;31.99;97763.09;5196223;28;20225;-64
2023/06/12 09:41:48;;;;;;;7.18;6.57;;;26.60;63.20;;;27.02;31.89;97745.63;5199237;28;20298;-63
2023/06/12 09:44:23;;;;;;;6.57;6.07;;;26.40;63.40;;;27.47;31.80;97756.50;5198941;28;20665;-64
2023/06/12 09:47:02;;;;;;;6.50;6.00;;;27.00;62.90;;;27.50;31.27;97740.72;5198848;28;20282;-66
2023/06/12 09:49:36;;;;;;;6.38;5.80;;;27.20;62.10;;;27.76;31.32;97751.78;5190113;28;20226;-64
2023/06/12 09:52:10;;;;;;;6.35;5.78;;;27.30;62.70;;;28.08;29.68;97750.47;5198214;28;20225;-64
2023/06/12 09:54:46;;;;;;;6.55;6.10;;;27.60;60.30;;;27.77;29.47;97756.13;5199410;28;20239;-63
2023/06/12 09:57:21;;;;;;;6.28;5.63;;;27.40;59.10;;;27.74;29.35;97748.28;5190003;28;20236;-64
2023/06/12 09:59:58;;;;;;;6.72;6.00;;;27.40;59.00;;;27.92;29.46;97762.09;5186629;28;20224;-64
2023/06/12 10:02:33;;;;;;;6.05;5.55;;;27.40;58.90;;;27.65;29.06;97758.91;5188927;28;20237;-64
2023/06/12 10:05:16;;;;;;;5.93;5.50;;;27.10;58.50;;;27.86;29.38;97752.53;5197312;28;20689;-65
2023/06/12 10:07:53;;;;;;;6.40;5.90;;;27.30;58.90;;;27.82;29.42;97756.97;5196921;28;20312;-65
2023/06/12 10:10:27;;;;;;;6.07;5.65;;;27.30;59.00;;;27.32;29.30;97745.28;5192548;28;20776;-64
2023/06/12 10:13:02;;;;;;;6.45;5.82;;;26.90;58.90;;;27.64;28.93;97741.41;5197858;28;20725;-65
2023/06/12 10:15:36;;;;;;;6.30;5.90;;;27.30;58.60;;;27.71;30.00;97737.81;5191746;28;20231;-65
2023/06/12 10:18:13;;;;;;;6.35;5.85;;;27.20;59.80;;;28.13;29.66;97740.78;5188698;28;20229;-64
2023/06/12 10:20:49;;;;;;;6.38;5.90;;;27.60;60.10;;;28.00;29.20;97739.22;5197769;28;20308;-64
2023/06/12 10:23:23;;;;;;;5.72;5.32;;;27.40;59.00;;;27.60;29.73;97730.06;5193197;28;20225;-65
2023/06/12 10:25:57;;;;;;;6.88;6.28;;;27.20;59.30;;;27.49;30.02;97738.97;5197701;28;20236;-65
2023/06/12 10:28:31;;;;;;;6.00;5.60;;;27.00;59.70;;;27.59;29.45;97728.34;5193224;28;20248;-65
2023/06/12 10:31:17;;;;;;;6.30;5.90;;;26.90;59.20;;;27.19;31.08;97730.59;5196475;28;20256;-65
2023/06/12 10:33:59;;;;;;;6.32;5.70;;;26.70;61.00;;;27.29;30.55;97726.09;5196071;28;20221;-63
2023/06/12 10:36:41;;;;;;;6.57;6.07;;;26.80;60.40;;;27.69;29.71;97729.09;5193148;28;20221;-64
2023/06/12 10:39:17;;;;;;;6.07;5.50;;;27.20;59.70;;;27.66;29.94;97716.00;5198899;28;20217;-64
2023/06/12 10:41:56;;;;;;;6.70;6.10;;;27.10;59.90;;;27.51;30.52;97716.22;5196310;28;20243;-65
2023/06/12 10:44:39;;;;;;;5.88;5.47;;;27.00;60.40;;;27.54;30.41;97718.78;5189935;28;20271;-64
2023/06/12 10:47:22;;;;;;;6.05;5.55;;;27.00;60.00;;;27.55;30.09;97710.00;5193502;28;20233;-64
2023/06/12 10:49:58;;;;;;;6.32;5.78;;;27.10;59.80;;;27.83;29.87;97710.53;5188235;28;20248;-64